sensor_id;sensor_type;location;lat;lon;timestamp;pressure;altitude;pressure_sealevel;temperature;humidity
53340;BME280;46212;50.258;19.062;2022-09-24T00:00:27;98656.31;;;5.87;95.08
53340;BME280;46212;50.258;19.062;2022-09-24T00:02:53;98650.34;;;5.92;95.09
53340;BME280;46212;50.258;19.062;2022-09-24T00:05:18;98643.66;;;5.93;95.44
53340;BME280;46212;50.258;19.062;2022-09-24T00:07:43;98655.78;;;5.96;95.22
53340;BME280;46212;50.258;19.062;2022-09-24T00:10:09;98653.88;;;5.93;95.35
53340;BME280;46212;50.258;19.062;2022-09-24T00:12:35;98643.66;;;5.93;95.18
53340;BME280;46212;50.258;19.062;2022-09-24T00:15:01;98632.78;;;5.90;94.83
53340;BME280;46212;50.258;19.062;2022-09-24T00:17:27;98651.19;;;5.89;95.14
53340;BME280;46212;50.258;19.062;2022-09-24T00:19:53;98650.44;;;5.88;95.31
53340;BME280;46212;50.258;19.062;2022-09-24T00:22:18;98641.69;;;5.94;95.61
53340;BME280;46212;50.258;19.062;2022-09-24T00:24:43;98623.06;;;5.85;95.79
53340;BME280;46212;50.258;19.062;2022-09-24T00:27:27;98638.53;;;5.95;96.06
53340;BME280;46212;50.258;19.062;2022-09-24T00:29:52;98630.47;;;5.88;95.97
53340;BME280;46212;50.258;19.062;2022-09-24T00:32:17;98630.50;;;5.84;96.35
53340;BME280;46212;50.258;19.062;2022-09-24T00:34:43;98612.06;;;5.88;96.08
53340;BME280;46212;50.258;19.062;2022-09-24T00:37:08;98608.47;;;5.92;95.51
53340;BME280;46212;50.258;19.062;2022-09-24T00:39:33;98606.44;;;5.96;95.48
53340;BME280;46212;50.258;19.062;2022-09-24T00:41:59;98609.25;;;5.92;95.85
53340;BME280;46212;50.258;19.062;2022-09-24T00:44:43;98614.72;;;5.92;95.68
53340;BME280;46212;50.258;19.062;2022-09-24T00:49:46;98609.16;;;5.76;96.26
53340;BME280;46212;50.258;19.062;2022-09-24T00:52:13;98597.28;;;5.63;96.56
53340;BME280;46212;50.258;19.062;2022-09-24T00:54:39;98603.34;;;5.74;96.72
53340;BME280;46212;50.258;19.062;2022-09-24T00:57:08;98594.41;;;5.70;96.44
53340;BME280;46212;50.258;19.062;2022-09-24T00:59:33;98591.03;;;5.62;95.89
53340;BME280;46212;50.258;19.062;2022-09-24T01:01:59;98584.44;;;5.60;96.03
53340;BME280;46212;50.258;19.062;2022-09-24T01:04:26;98593.50;;;5.57;96.17
53340;BME280;46212;50.258;19.062;2022-09-24T01:06:53;98594.41;;;5.70;96.10
53340;BME280;46212;50.258;19.062;2022-09-24T01:09:20;98605.78;;;5.49;95.96
53340;BME280;46212;50.258;19.062;2022-09-24T01:12:25;98601.47;;;5.51;96.32
53340;BME280;46212;50.258;19.062;2022-09-24T01:15:02;98593.59;;;5.53;96.38
53340;BME280;46212;50.258;19.062;2022-09-24T01:28:31;98583.84;;;5.32;96.16
53340;BME280;46212;50.258;19.062;2022-09-24T01:31:07;98559.25;;;5.29;96.44
53340;BME280;46212;50.258;19.062;2022-09-24T01:33:36;98558.97;;;5.43;95.82
53340;BME280;46212;50.258;19.062;2022-09-24T01:36:03;98560.38;;;5.31;95.70
53340;BME280;46212;50.258;19.062;2022-09-24T01:38:36;98549.06;;;5.10;95.87
53340;BME280;46212;50.258;19.062;2022-09-24T01:41:03;98560.38;;;5.12;96.27
53340;BME280;46212;50.258;19.062;2022-09-24T01:43:31;98553.41;;;5.27;96.32
53340;BME280;46212;50.258;19.062;2022-09-24T01:46:00;98553.78;;;5.29;96.02
53340;BME280;46212;50.258;19.062;2022-09-24T01:48:27;98552.88;;;5.35;95.44
53340;BME280;46212;50.258;19.062;2022-09-24T01:51:07;98548.72;;;5.47;95.14
53340;BME280;46212;50.258;19.062;2022-09-24T01:54:02;98552.44;;;5.37;94.51
53340;BME280;46212;50.258;19.062;2022-09-24T01:56:38;98546.03;;;5.24;95.28
53340;BME280;46212;50.258;19.062;2022-09-24T01:59:22;98543.50;;;5.33;95.96
53340;BME280;46212;50.258;19.062;2022-09-24T02:02:00;98552.38;;;5.41;95.64
53340;BME280;46212;50.258;19.062;2022-09-24T02:04:29;98547.81;;;5.34;95.56
53340;BME280;46212;50.258;19.062;2022-09-24T02:07:05;98563.53;;;5.30;96.06
53340;BME280;46212;50.258;19.062;2022-09-24T02:09:36;98542.91;;;5.25;95.90
53340;BME280;46212;50.258;19.062;2022-09-24T02:12:11;98547.25;;;5.23;95.53
53340;BME280;46212;50.258;19.062;2022-09-24T02:14:54;98561.34;;;5.21;95.56
53340;BME280;46212;50.258;19.062;2022-09-24T02:17:23;98544.06;;;4.85;95.15
53340;BME280;46212;50.258;19.062;2022-09-24T02:19:52;98565.53;;;4.87;94.63
53340;BME280;46212;50.258;19.062;2022-09-24T02:22:19;98565.00;;;4.72;95.36
53340;BME280;46212;50.258;19.062;2022-09-24T02:24:53;98561.22;;;4.66;96.64
53340;BME280;46212;50.258;19.062;2022-09-24T02:27:24;98557.88;;;4.55;96.86
53340;BME280;46212;50.258;19.062;2022-09-24T02:29:53;98547.09;;;4.44;97.11
53340;BME280;46212;50.258;19.062;2022-09-24T02:32:21;98543.44;;;4.31;97.38
53340;BME280;46212;50.258;19.062;2022-09-24T02:34:51;98552.47;;;4.51;97.24
53340;BME280;46212;50.258;19.062;2022-09-24T02:37:18;98531.91;;;4.43;96.11
53340;BME280;46212;50.258;19.062;2022-09-24T02:39:46;98529.56;;;4.42;95.75
53340;BME280;46212;50.258;19.062;2022-09-24T02:42:13;98552.00;;;4.56;95.59
53340;BME280;46212;50.258;19.062;2022-09-24T02:44:39;98556.81;;;4.49;95.06
53340;BME280;46212;50.258;19.062;2022-09-24T02:47:05;98533.91;;;4.16;96.13
53340;BME280;46212;50.258;19.062;2022-09-24T02:49:31;98552.88;;;4.26;96.60
53340;BME280;46212;50.258;19.062;2022-09-24T02:51:56;98544.00;;;4.19;96.10
53340;BME280;46212;50.258;19.062;2022-09-24T02:54:21;98550.53;;;4.25;96.31
53340;BME280;46212;50.258;19.062;2022-09-24T02:56:48;98556.19;;;4.14;96.56
53340;BME280;46212;50.258;19.062;2022-09-24T02:59:13;98554.59;;;4.17;96.83
53340;BME280;46212;50.258;19.062;2022-09-24T03:01:39;98544.47;;;4.14;96.68
53340;BME280;46212;50.258;19.062;2022-09-24T03:04:04;98548.72;;;4.18;95.98
53340;BME280;46212;50.258;19.062;2022-09-24T03:06:30;98539.00;;;4.14;95.78
53340;BME280;46212;50.258;19.062;2022-09-24T03:08:55;98546.38;;;4.17;96.20
53340;BME280;46212;50.258;19.062;2022-09-24T03:11:21;98537.59;;;4.06;96.54
53340;BME280;46212;50.258;19.062;2022-09-24T03:13:48;98540.44;;;4.22;96.47
53340;BME280;46212;50.258;19.062;2022-09-24T03:16:14;98533.13;;;4.15;96.22
53340;BME280;46212;50.258;19.062;2022-09-24T03:18:40;98540.44;;;4.22;96.33
53340;BME280;46212;50.258;19.062;2022-09-24T03:21:07;98541.75;;;4.14;97.06
53340;BME280;46212;50.258;19.062;2022-09-24T03:23:33;98527.78;;;4.08;96.66
53340;BME280;46212;50.258;19.062;2022-09-24T03:25:59;98542.00;;;4.23;95.89
53340;BME280;46212;50.258;19.062;2022-09-24T03:28:24;98539.22;;;4.26;95.15
53340;BME280;46212;50.258;19.062;2022-09-24T03:30:49;98547.47;;;4.23;95.21
53340;BME280;46212;50.258;19.062;2022-09-24T03:33:34;98540.88;;;4.20;95.62
53340;BME280;46212;50.258;19.062;2022-09-24T03:38:34;98525.00;;;4.12;95.54
53340;BME280;46212;50.258;19.062;2022-09-24T03:41:00;98534.97;;;4.22;95.38
53340;BME280;46212;50.258;19.062;2022-09-24T03:43:26;98535.84;;;4.15;95.39
53340;BME280;46212;50.258;19.062;2022-09-24T03:45:52;98536.53;;;4.23;95.24
53340;BME280;46212;50.258;19.062;2022-09-24T03:48:19;98538.09;;;4.24;95.25
53340;BME280;46212;50.258;19.062;2022-09-24T03:50:46;98523.09;;;4.09;95.27
53340;BME280;46212;50.258;19.062;2022-09-24T03:53:12;98533.34;;;4.28;95.53
53340;BME280;46212;50.258;19.062;2022-09-24T03:55:45;98523.81;;;4.36;95.03
53340;BME280;46212;50.258;19.062;2022-09-24T03:58:12;98537.78;;;4.42;95.38
53340;BME280;46212;50.258;19.062;2022-09-24T04:00:38;98514.38;;;4.41;94.86
53340;BME280;46212;50.258;19.062;2022-09-24T04:03:04;98537.00;;;4.41;95.27
53340;BME280;46212;50.258;19.062;2022-09-24T04:05:30;98537.34;;;4.20;95.53
53340;BME280;46212;50.258;19.062;2022-09-24T04:07:57;98539.25;;;4.23;95.96
53340;BME280;46212;50.258;19.062;2022-09-24T04:10:22;98547.00;;;4.28;95.64
53340;BME280;46212;50.258;19.062;2022-09-24T04:12:49;98549.38;;;4.26;96.02
53340;BME280;46212;50.258;19.062;2022-09-24T04:15:14;98542.00;;;4.23;95.99
53340;BME280;46212;50.258;19.062;2022-09-24T04:17:48;98532.25;;;4.22;95.65
53340;BME280;46212;50.258;19.062;2022-09-24T04:20:14;98537.34;;;4.20;95.81
53340;BME280;46212;50.258;19.062;2022-09-24T04:22:39;98533.06;;;4.19;96.18
53340;BME280;46212;50.258;19.062;2022-09-24T04:25:05;98535.63;;;4.29;96.08
53340;BME280;46212;50.258;19.062;2022-09-24T04:27:30;98522.63;;;4.14;95.74
53340;BME280;46212;50.258;19.062;2022-09-24T04:29:56;98515.50;;;4.20;95.53
53340;BME280;46212;50.258;19.062;2022-09-24T04:32:21;98519.00;;;4.20;95.49
53340;BME280;46212;50.258;19.062;2022-09-24T04:34:46;98516.56;;;4.26;95.89
53340;BME280;46212;50.258;19.062;2022-09-24T04:37:12;98511.16;;;4.22;95.10
53340;BME280;46212;50.258;19.062;2022-09-24T04:39:37;98513.47;;;4.24;95.65
53340;BME280;46212;50.258;19.062;2022-09-24T04:42:02;98513.38;;;4.31;95.68
53340;BME280;46212;50.258;19.062;2022-09-24T04:44:28;98519.13;;;4.37;95.16
53340;BME280;46212;50.258;19.062;2022-09-24T04:46:54;98526.56;;;4.36;94.94
53340;BME280;46212;50.258;19.062;2022-09-24T04:49:24;98505.81;;;4.39;95.01
53340;BME280;46212;50.258;19.062;2022-09-24T04:51:49;98494.63;;;4.29;94.58
53340;BME280;46212;50.258;19.062;2022-09-24T04:54:14;98510.50;;;4.61;94.62
53340;BME280;46212;50.258;19.062;2022-09-24T04:56:40;98504.84;;;4.72;94.24
53340;BME280;46212;50.258;19.062;2022-09-24T04:59:06;98499.16;;;4.82;93.97
53340;BME280;46212;50.258;19.062;2022-09-24T05:01:31;98509.69;;;4.84;93.76
53340;BME280;46212;50.258;19.062;2022-09-24T05:03:56;98497.63;;;4.81;94.00
53340;BME280;46212;50.258;19.062;2022-09-24T05:06:22;98499.22;;;4.79;93.55
53340;BME280;46212;50.258;19.062;2022-09-24T05:08:47;98511.44;;;4.74;93.89
53340;BME280;46212;50.258;19.062;2022-09-24T05:11:13;98508.75;;;4.71;93.85
53340;BME280;46212;50.258;19.062;2022-09-24T05:13:38;98510.44;;;4.65;94.39
53340;BME280;46212;50.258;19.062;2022-09-24T05:16:03;98513.47;;;4.90;94.12
53340;BME280;46212;50.258;19.062;2022-09-24T05:18:29;98507.28;;;4.86;94.61
53340;BME280;46212;50.258;19.062;2022-09-24T05:20:54;98490.19;;;5.02;94.29
53340;BME280;46212;50.258;19.062;2022-09-24T05:23:20;98490.94;;;5.02;93.84
53340;BME280;46212;50.258;19.062;2022-09-24T05:25:45;98495.38;;;5.16;94.09
53340;BME280;46212;50.258;19.062;2022-09-24T05:28:29;98508.13;;;5.42;94.30
53340;BME280;46212;50.258;19.062;2022-09-24T05:30:58;98494.47;;;5.58;94.20
53340;BME280;46212;50.258;19.062;2022-09-24T05:33:23;98485.50;;;5.58;94.02
53340;BME280;46212;50.258;19.062;2022-09-24T05:35:55;98495.53;;;5.80;93.75
53340;BME280;46212;50.258;19.062;2022-09-24T05:38:21;98482.25;;;5.79;94.01
53340;BME280;46212;50.258;19.062;2022-09-24T05:40:47;98494.00;;;5.79;94.36
53340;BME280;46212;50.258;19.062;2022-09-24T05:43:12;98505.44;;;5.94;94.79
53340;BME280;46212;50.258;19.062;2022-09-24T05:45:37;98497.91;;;6.14;94.99
53340;BME280;46212;50.258;19.062;2022-09-24T05:48:03;98492.50;;;6.43;93.02
53340;BME280;46212;50.258;19.062;2022-09-24T05:50:28;98501.75;;;6.49;92.85
53340;BME280;46212;50.258;19.062;2022-09-24T05:52:55;98493.00;;;6.22;93.52
53340;BME280;46212;50.258;19.062;2022-09-24T05:55:20;98504.25;;;6.27;94.03
53340;BME280;46212;50.258;19.062;2022-09-24T05:57:45;98494.44;;;6.59;93.63
53340;BME280;46212;50.258;19.062;2022-09-24T06:00:11;98497.09;;;6.62;92.77
53340;BME280;46212;50.258;19.062;2022-09-24T06:02:36;98493.50;;;6.65;92.97
53340;BME280;46212;50.258;19.062;2022-09-24T06:05:02;98496.13;;;6.69;92.97
53340;BME280;46212;50.258;19.062;2022-09-24T06:07:27;98514.91;;;6.70;92.84
53340;BME280;46212;50.258;19.062;2022-09-24T06:09:53;98513.22;;;6.89;92.70
53340;BME280;46212;50.258;19.062;2022-09-24T06:12:19;98499.31;;;6.96;92.90
53340;BME280;46212;50.258;19.062;2022-09-24T06:14:46;98515.03;;;7.37;91.44
53340;BME280;46212;50.258;19.062;2022-09-24T06:17:11;98509.56;;;7.49;90.45
53340;BME280;46212;50.258;19.062;2022-09-24T06:19:36;98515.38;;;7.52;89.83
53340;BME280;46212;50.258;19.062;2022-09-24T06:22:03;98513.22;;;7.72;89.31
53340;BME280;46212;50.258;19.062;2022-09-24T06:24:28;98516.16;;;7.65;89.60
53340;BME280;46212;50.258;19.062;2022-09-24T06:26:53;98517.50;;;7.60;91.49
53340;BME280;46212;50.258;19.062;2022-09-24T06:29:19;98511.13;;;7.76;90.87
53340;BME280;46212;50.258;19.062;2022-09-24T06:31:45;98517.94;;;7.96;89.78
53340;BME280;46212;50.258;19.062;2022-09-24T06:34:11;98526.44;;;8.15;88.99
53340;BME280;46212;50.258;19.062;2022-09-24T06:36:36;98523.13;;;8.32;87.78
53340;BME280;46212;50.258;19.062;2022-09-24T06:39:02;98517.50;;;8.36;88.23
53340;BME280;46212;50.258;19.062;2022-09-24T06:41:27;98521.59;;;8.31;88.45
53340;BME280;46212;50.258;19.062;2022-09-24T06:43:53;98516.84;;;8.07;90.56
53340;BME280;46212;50.258;19.062;2022-09-24T06:46:19;98512.31;;;8.25;90.52
53340;BME280;46212;50.258;19.062;2022-09-24T06:48:47;98517.19;;;8.34;89.76
53340;BME280;46212;50.258;19.062;2022-09-24T06:51:12;98521.31;;;8.64;89.17
53340;BME280;46212;50.258;19.062;2022-09-24T06:53:38;98514.19;;;8.88;88.42
53340;BME280;46212;50.258;19.062;2022-09-24T06:56:03;98513.88;;;9.07;87.20
53340;BME280;46212;50.258;19.062;2022-09-24T06:58:29;98516.56;;;9.20;86.75
53340;BME280;46212;50.258;19.062;2022-09-24T07:00:57;98504.97;;;9.25;85.92
53340;BME280;46212;50.258;19.062;2022-09-24T07:03:24;98508.09;;;9.36;85.53
53340;BME280;46212;50.258;19.062;2022-09-24T07:05:49;98521.72;;;9.61;85.26
53340;BME280;46212;50.258;19.062;2022-09-24T07:08:15;98522.13;;;9.73;84.10
53340;BME280;46212;50.258;19.062;2022-09-24T07:10:45;98506.03;;;9.80;83.37
53340;BME280;46212;50.258;19.062;2022-09-24T07:13:14;98514.75;;;10.09;83.25
53340;BME280;46212;50.258;19.062;2022-09-24T07:15:40;98510.53;;;10.18;82.80
53340;BME280;46212;50.258;19.062;2022-09-24T07:18:06;98518.84;;;10.36;81.77
53340;BME280;46212;50.258;19.062;2022-09-24T07:20:31;98508.72;;;10.33;81.94
53340;BME280;46212;50.258;19.062;2022-09-24T07:22:59;98519.81;;;10.51;82.02
53340;BME280;46212;50.258;19.062;2022-09-24T07:25:24;98509.84;;;10.62;80.09
53340;BME280;46212;50.258;19.062;2022-09-24T07:27:49;98517.84;;;10.70;79.56
53340;BME280;46212;50.258;19.062;2022-09-24T07:30:15;98520.16;;;10.71;80.50
53340;BME280;46212;50.258;19.062;2022-09-24T07:32:41;98518.13;;;10.62;80.62
53340;BME280;46212;50.258;19.062;2022-09-24T07:35:06;98524.13;;;10.70;81.05
53340;BME280;46212;50.258;19.062;2022-09-24T07:37:32;98532.13;;;10.95;79.21
53340;BME280;46212;50.258;19.062;2022-09-24T07:39:58;98530.16;;;11.14;78.66
53340;BME280;46212;50.258;19.062;2022-09-24T07:42:24;98530.28;;;11.10;78.72
53340;BME280;46212;50.258;19.062;2022-09-24T07:44:50;98535.53;;;10.90;79.96
53340;BME280;46212;50.258;19.062;2022-09-24T07:47:16;98530.44;;;11.07;79.00
53340;BME280;46212;50.258;19.062;2022-09-24T07:49:42;98542.59;;;11.18;78.44
53340;BME280;46212;50.258;19.062;2022-09-24T07:52:07;98529.97;;;11.36;78.31
53340;BME280;46212;50.258;19.062;2022-09-24T07:54:34;98536.28;;;11.27;79.10
53340;BME280;46212;50.258;19.062;2022-09-24T07:56:59;98528.56;;;11.49;77.52
53340;BME280;46212;50.258;19.062;2022-09-24T07:59:27;98530.19;;;11.83;75.29
53340;BME280;46212;50.258;19.062;2022-09-24T08:01:52;98522.22;;;11.85;74.66
53340;BME280;46212;50.258;19.062;2022-09-24T08:04:17;98530.66;;;11.91;75.26
53340;BME280;46212;50.258;19.062;2022-09-24T08:06:43;98532.19;;;11.92;76.37
53340;BME280;46212;50.258;19.062;2022-09-24T08:09:08;98535.41;;;11.90;77.56
53340;BME280;46212;50.258;19.062;2022-09-24T08:11:33;98532.28;;;12.06;77.10
53340;BME280;46212;50.258;19.062;2022-09-24T08:13:59;98533.44;;;11.82;77.07
53340;BME280;46212;50.258;19.062;2022-09-24T08:16:25;98533.34;;;12.09;76.56
53340;BME280;46212;50.258;19.062;2022-09-24T08:18:51;98535.56;;;12.29;76.08
53340;BME280;46212;50.258;19.062;2022-09-24T08:21:17;98527.97;;;12.38;75.65
53340;BME280;46212;50.258;19.062;2022-09-24T08:23:42;98523.16;;;12.48;75.04
53340;BME280;46212;50.258;19.062;2022-09-24T08:26:12;98517.69;;;12.62;73.97
53340;BME280;46212;50.258;19.062;2022-09-24T08:28:38;98530.59;;;12.89;73.08
53340;BME280;46212;50.258;19.062;2022-09-24T08:31:11;98532.63;;;13.03;72.69
53340;BME280;46212;50.258;19.062;2022-09-24T08:33:37;98538.44;;;13.14;72.88
53340;BME280;46212;50.258;19.062;2022-09-24T08:36:05;98533.84;;;13.26;72.80
53340;BME280;46212;50.258;19.062;2022-09-24T08:38:31;98539.81;;;13.34;72.83
53340;BME280;46212;50.258;19.062;2022-09-24T08:43:45;98542.50;;;13.28;72.92
53340;BME280;46212;50.258;19.062;2022-09-24T08:46:18;98515.22;;;13.26;71.71
53340;BME280;46212;50.258;19.062;2022-09-24T08:49:06;98527.84;;;13.42;72.67
53340;BME280;46212;50.258;19.062;2022-09-24T08:51:43;98530.06;;;13.67;69.98
53340;BME280;46212;50.258;19.062;2022-09-24T08:54:16;98526.47;;;13.76;70.51
53340;BME280;46212;50.258;19.062;2022-09-24T08:56:44;98528.72;;;13.92;70.71
53340;BME280;46212;50.258;19.062;2022-09-24T08:59:15;98530.25;;;14.08;70.06
53340;BME280;46212;50.258;19.062;2022-09-24T09:10:03;98515.44;;;14.46;67.71
53340;BME280;46212;50.258;19.062;2022-09-24T09:15:59;98516.41;;;14.63;65.60
53340;BME280;46212;50.258;19.062;2022-09-24T09:18:30;98505.88;;;14.67;64.67
53340;BME280;46212;50.258;19.062;2022-09-24T09:23:59;98498.53;;;14.84;63.02
53340;BME280;46212;50.258;19.062;2022-09-24T09:26:26;98487.16;;;14.87;63.68
53340;BME280;46212;50.258;19.062;2022-09-24T09:28:57;98492.81;;;14.93;62.15
53340;BME280;46212;50.258;19.062;2022-09-24T09:31:35;98484.38;;;14.87;62.12
53340;BME280;46212;50.258;19.062;2022-09-24T09:39:50;98482.75;;;15.21;61.26
53340;BME280;46212;50.258;19.062;2022-09-24T09:44:46;98488.16;;;15.30;60.72
53340;BME280;46212;50.258;19.062;2022-09-24T09:47:45;98482.41;;;15.60;59.69
53340;BME280;46212;50.258;19.062;2022-09-24T09:53:00;98481.94;;;15.67;58.32
53340;BME280;46212;50.258;19.062;2022-09-24T09:55:34;98466.00;;;15.67;58.33
53340;BME280;46212;50.258;19.062;2022-09-24T09:58:17;98467.91;;;15.81;58.35
53340;BME280;46212;50.258;19.062;2022-09-24T10:00:43;98476.31;;;15.92;57.46
53340;BME280;46212;50.258;19.062;2022-09-24T10:03:46;98478.25;;;16.12;57.71
53340;BME280;46212;50.258;19.062;2022-09-24T10:06:21;98480.03;;;16.15;56.95
53340;BME280;46212;50.258;19.062;2022-09-24T10:08:46;98478.34;;;16.23;56.06
53340;BME280;46212;50.258;19.062;2022-09-24T10:11:14;98464.97;;;16.33;56.00
53340;BME280;46212;50.258;19.062;2022-09-24T10:13:40;98479.63;;;16.28;56.76
53340;BME280;46212;50.258;19.062;2022-09-24T10:16:08;98482.56;;;16.56;54.94
53340;BME280;46212;50.258;19.062;2022-09-24T10:18:46;98471.66;;;16.52;54.45
53340;BME280;46212;50.258;19.062;2022-09-24T10:21:33;98491.06;;;16.35;54.86
53340;BME280;46212;50.258;19.062;2022-09-24T10:24:01;98478.97;;;16.49;54.18
53340;BME280;46212;50.258;19.062;2022-09-24T10:26:35;98461.63;;;16.29;53.09
53340;BME280;46212;50.258;19.062;2022-09-24T10:29:01;98481.41;;;16.31;53.38
53340;BME280;46212;50.258;19.062;2022-09-24T10:31:45;98476.81;;;16.28;52.32
53340;BME280;46212;50.258;19.062;2022-09-24T10:34:39;98481.19;;;16.34;53.45
53340;BME280;46212;50.258;19.062;2022-09-24T10:37:13;98477.59;;;16.28;53.62
53340;BME280;46212;50.258;19.062;2022-09-24T10:39:39;98459.44;;;15.70;53.88
53340;BME280;46212;50.258;19.062;2022-09-24T10:42:05;98473.41;;;16.07;54.43
53340;BME280;46212;50.258;19.062;2022-09-24T10:44:33;98460.97;;;16.45;54.42
53340;BME280;46212;50.258;19.062;2022-09-24T10:47:18;98466.94;;;16.69;52.88
53340;BME280;46212;50.258;19.062;2022-09-24T10:50:02;98467.31;;;17.05;52.51
53340;BME280;46212;50.258;19.062;2022-09-24T10:52:41;98461.50;;;17.08;52.69
53340;BME280;46212;50.258;19.062;2022-09-24T10:55:14;98463.47;;;16.96;52.17
53340;BME280;46212;50.258;19.062;2022-09-24T10:57:57;98463.34;;;17.33;50.54
53340;BME280;46212;50.258;19.062;2022-09-24T11:00:37;98459.00;;;17.38;50.14
53340;BME280;46212;50.258;19.062;2022-09-24T11:06:01;98461.28;;;17.23;52.09
53340;BME280;46212;50.258;19.062;2022-09-24T11:09:08;98463.03;;;17.15;49.76
53340;BME280;46212;50.258;19.062;2022-09-24T11:11:58;98458.94;;;16.99;49.56
53340;BME280;46212;50.258;19.062;2022-09-24T11:14:30;98447.81;;;17.10;49.84
53340;BME280;46212;50.258;19.062;2022-09-24T11:20:22;98453.19;;;17.30;50.93
53340;BME280;46212;50.258;19.062;2022-09-24T11:22:58;98446.84;;;17.35;50.61
53340;BME280;46212;50.258;19.062;2022-09-24T11:30:57;98450.81;;;16.95;49.26
53340;BME280;46212;50.258;19.062;2022-09-24T11:36:15;98449.19;;;17.65;47.82
53340;BME280;46212;50.258;19.062;2022-09-24T11:41:51;98441.16;;;18.63;45.91
53340;BME280;46212;50.258;19.062;2022-09-24T11:47:15;98430.97;;;19.58;44.58
53340;BME280;46212;50.258;19.062;2022-09-24T11:49:52;98439.22;;;20.05;42.17
53340;BME280;46212;50.258;19.062;2022-09-24T11:52:37;98437.94;;;20.06;40.50
53340;BME280;46212;50.258;19.062;2022-09-24T11:55:32;98436.81;;;20.14;38.28
53340;BME280;46212;50.258;19.062;2022-09-24T12:00:37;98433.50;;;20.16;40.95
53340;BME280;46212;50.258;19.062;2022-09-24T12:05:44;98435.84;;;19.52;39.84
53340;BME280;46212;50.258;19.062;2022-09-24T12:08:31;98429.53;;;19.41;41.69
53340;BME280;46212;50.258;19.062;2022-09-24T12:11:07;98428.63;;;19.27;42.27
53340;BME280;46212;50.258;19.062;2022-09-24T12:13:38;98425.41;;;19.12;42.01
53340;BME280;46212;50.258;19.062;2022-09-24T12:16:17;98419.94;;;18.84;42.97
53340;BME280;46212;50.258;19.062;2022-09-24T12:18:52;98427.34;;;18.82;43.83
53340;BME280;46212;50.258;19.062;2022-09-24T12:21:25;98412.06;;;18.83;43.14
53340;BME280;46212;50.258;19.062;2022-09-24T12:23:54;98405.88;;;19.01;43.63
53340;BME280;46212;50.258;19.062;2022-09-24T12:26:23;98417.88;;;19.31;42.54
53340;BME280;46212;50.258;19.062;2022-09-24T12:31:53;98403.50;;;19.81;42.07
53340;BME280;46212;50.258;19.062;2022-09-24T12:34:48;98398.03;;;20.19;41.17
53340;BME280;46212;50.258;19.062;2022-09-24T12:37:22;98398.03;;;20.19;41.06
53340;BME280;46212;50.258;19.062;2022-09-24T12:42:48;98383.44;;;20.26;38.41
53340;BME280;46212;50.258;19.062;2022-09-24T12:45:19;98394.56;;;19.83;41.30
53340;BME280;46212;50.258;19.062;2022-09-24T12:47:50;98400.19;;;19.53;41.25
53340;BME280;46212;50.258;19.062;2022-09-24T12:50:23;98398.47;;;19.39;40.92
53340;BME280;46212;50.258;19.062;2022-09-24T12:52:49;98394.91;;;19.74;39.64
53340;BME280;46212;50.258;19.062;2022-09-24T12:55:27;98382.75;;;21.00;38.57
53340;BME280;46212;50.258;19.062;2022-09-24T12:58:06;98382.28;;;22.23;35.74
53340;BME280;46212;50.258;19.062;2022-09-24T13:03:00;98383.13;;;24.93;30.75
53340;BME280;46212;50.258;19.062;2022-09-24T13:05:32;98374.28;;;25.93;29.04
53340;BME280;46212;50.258;19.062;2022-09-24T13:10:28;98376.63;;;30.40;24.08
53340;BME280;46212;50.258;19.062;2022-09-24T13:12:55;98374.22;;;31.63;22.85
53340;BME280;46212;50.258;19.062;2022-09-24T13:18:19;98368.13;;;35.16;18.48
53340;BME280;46212;50.258;19.062;2022-09-24T13:21:05;98366.34;;;34.73;18.78
53340;BME280;46212;50.258;19.062;2022-09-24T13:23:43;98357.38;;;35.17;18.93
53340;BME280;46212;50.258;19.062;2022-09-24T13:26:13;98347.78;;;34.87;17.81
53340;BME280;46212;50.258;19.062;2022-09-24T13:31:24;98350.25;;;37.24;15.84
53340;BME280;46212;50.258;19.062;2022-09-24T13:34:13;98345.09;;;39.01;14.81
53340;BME280;46212;50.258;19.062;2022-09-24T13:44:52;98356.50;;;34.52;18.21
53340;BME280;46212;50.258;19.062;2022-09-24T13:47:26;98351.69;;;29.39;22.67
53340;BME280;46212;50.258;19.062;2022-09-24T13:50:01;98341.91;;;27.04;26.19
53340;BME280;46212;50.258;19.062;2022-09-24T13:52:32;98338.19;;;25.25;29.36
53340;BME280;46212;50.258;19.062;2022-09-24T13:55:05;98336.63;;;24.50;30.83
53340;BME280;46212;50.258;19.062;2022-09-24T13:57:44;98334.19;;;23.90;32.16
53340;BME280;46212;50.258;19.062;2022-09-24T14:00:21;98334.63;;;23.73;33.13
53340;BME280;46212;50.258;19.062;2022-09-24T14:05:20;98313.03;;;22.20;35.13
53340;BME280;46212;50.258;19.062;2022-09-24T14:08:11;98327.53;;;22.24;36.39
53340;BME280;46212;50.258;19.062;2022-09-24T14:10:38;98306.59;;;24.24;34.36
53340;BME280;46212;50.258;19.062;2022-09-24T14:13:25;98319.25;;;30.93;23.84
53340;BME280;46212;50.258;19.062;2022-09-24T14:16:07;98320.84;;;29.81;23.35
53340;BME280;46212;50.258;19.062;2022-09-24T14:18:33;98305.97;;;29.27;24.91
53340;BME280;46212;50.258;19.062;2022-09-24T14:23:34;98302.06;;;30.24;23.79
53340;BME280;46212;50.258;19.062;2022-09-24T14:26:01;98310.59;;;33.11;20.63
53340;BME280;46212;50.258;19.062;2022-09-24T14:28:27;98308.19;;;35.23;18.39
53340;BME280;46212;50.258;19.062;2022-09-24T14:30:57;98309.00;;;35.64;18.09
53340;BME280;46212;50.258;19.062;2022-09-24T14:33:25;98313.16;;;36.15;17.63
53340;BME280;46212;50.258;19.062;2022-09-24T14:35:54;98316.28;;;33.67;19.45
53340;BME280;46212;50.258;19.062;2022-09-24T14:38:25;98319.94;;;32.25;21.03
53340;BME280;46212;50.258;19.062;2022-09-24T14:46:14;98300.66;;;28.87;24.86
53340;BME280;46212;50.258;19.062;2022-09-24T14:48:41;98312.72;;;30.43;23.24
53340;BME280;46212;50.258;19.062;2022-09-24T14:51:26;98308.28;;;29.94;24.40
53340;BME280;46212;50.258;19.062;2022-09-24T14:59:37;98313.84;;;28.31;26.05